Time;durP1;ratioP1;P1;durP2;ratioP2;P2;SDS_P1;SDS_P2;PMS_P1;PMS_P2;Temp;Humidity;BMP_temperature;BMP_pressure;BME280_temperature;BME280_humidity;BME280_pressure;Samples;Min_cycle;Max_cycle;Signal;HPM_P1;HPM_P2
2023/07/27 00:02:00;;;;;;;;;4.60;4.60;;;;;;;;5049694;28;8792;-82
2023/07/27 00:04:28;;;;;;;;;4.00;3.80;;;;;;;;5049968;28;8939;-80
2023/07/27 00:06:57;;;;;;;;;3.60;3.60;;;;;;;;5050494;28;8989;-81
2023/07/27 00:09:24;;;;;;;;;4.20;4.00;;;;;;;;5050572;28;8851;-80
2023/07/27 00:11:51;;;;;;;;;1.75;1.75;;;;;;;;5050420;28;8960;-81
2023/07/27 00:14:19;;;;;;;;;2.80;2.80;;;;;;;;5050053;28;8876;-81
2023/07/27 00:16:46;;;;;;;;;2.20;2.20;;;;;;;;5049708;28;8970;-81
2023/07/27 00:19:13;;;;;;;;;4.00;4.00;;;;;;;;5049945;28;8898;-81
2023/07/27 00:21:43;;;;;;;;;3.25;3.25;;;;;;;;5049712;28;8881;-81
2023/07/27 00:24:15;;;;;;;;;5.80;4.40;;;;;;;;5049619;28;8947;-81
2023/07/27 00:26:43;;;;;;;;;2.00;2.00;;;;;;;;5051113;28;8891;-81
2023/07/27 00:29:10;;;;;;;;;3.80;2.00;;;;;;;;5049712;28;8854;-81
2023/07/27 00:31:37;;;;;;;;;3.60;3.60;;;;;;;;5049903;28;8818;-82
2023/07/27 00:34:05;;;;;;;;;5.75;3.75;;;;;;;;5049916;28;8859;-81
2023/07/27 00:36:32;;;;;;;;;4.00;4.00;;;;;;;;5050052;28;8878;-82
2023/07/27 00:39:00;;;;;;;;;3.40;3.40;;;;;;;;5050452;28;8981;-82
2023/07/27 00:41:28;;;;;;;;;2.60;2.60;;;;;;;;5050081;28;8831;-82
2023/07/27 00:43:56;;;;;;;;;3.00;3.00;;;;;;;;5049828;28;8871;-82
2023/07/27 00:46:25;;;;;;;;;4.00;3.00;;;;;;;;5049703;28;8847;-82
2023/07/27 00:48:52;;;;;;;;;4.00;4.00;;;;;;;;5049838;28;8867;-84
2023/07/27 00:51:19;;;;;;;;;3.40;3.40;;;;;;;;5049987;28;8885;-80
2023/07/27 00:53:49;;;;;;;;;3.25;3.25;;;;;;;;5052927;28;8988;-81
2023/07/27 00:56:17;;;;;;;;;3.00;3.00;;;;;;;;5052441;28;8839;-82
2023/07/27 00:58:46;;;;;;;;;5.25;5.00;;;;;;;;5049898;28;8965;-82
2023/07/27 01:01:14;;;;;;;;;3.20;3.20;;;;;;;;5049394;28;8811;-83
2023/07/27 01:03:42;;;;;;;;;3.00;3.00;;;;;;;;5050151;28;8869;-83
2023/07/27 01:06:09;;;;;;;;;4.00;4.00;;;;;;;;5053915;28;8843;-84
2023/07/27 01:08:36;;;;;;;;;5.25;5.00;;;;;;;;5055503;28;8855;-84
2023/07/27 01:11:09;;;;;;;;;4.00;4.00;;;;;;;;5056463;28;8893;-84
2023/07/27 01:13:40;;;;;;;;;6.25;4.50;;;;;;;;5057101;28;8862;-83
2023/07/27 01:16:12;;;;;;;;;4.75;4.75;;;;;;;;5036936;28;8849;-83
2023/07/27 01:18:50;;;;;;;;;3.00;3.00;;;;;;;;5037118;28;8878;-84
2023/07/27 01:21:21;;;;;;;;;2.80;2.80;;;;;;;;5034680;28;8849;-84
2023/07/27 01:24:24;;;;;;;;;3.00;3.00;;;;;;;;5033886;28;8865;-84
2023/07/27 01:27:09;;;;;;;;;3.40;3.40;;;;;;;;5034143;28;8974;-84
2023/07/27 01:30:03;;;;;;;;;3.60;3.60;;;;;;;;5038131;28;8923;-84
2023/07/27 01:32:35;;;;;;;;;4.00;4.00;;;;;;;;5037254;28;8786;-84
2023/07/27 01:35:04;;;;;;;;;4.00;4.00;;;;;;;;5034650;28;9639;-84
2023/07/27 01:37:32;;;;;;;;;5.00;5.00;;;;;;;;5033774;28;8861;-84
2023/07/27 01:40:03;;;;;;;;;3.60;3.60;;;;;;;;5033242;28;8939;-84
2023/07/27 01:42:33;;;;;;;;;3.80;2.00;;;;;;;;5033198;28;8877;-83
2023/07/27 01:45:00;;;;;;;;;3.80;3.80;;;;;;;;5033613;28;8865;-84
2023/07/27 01:47:29;;;;;;;;;4.00;4.00;;;;;;;;5033337;28;8869;-85
2023/07/27 01:49:58;;;;;;;;;3.20;3.20;;;;;;;;5033213;28;8853;-84
2023/07/27 01:52:27;;;;;;;;;3.40;3.40;;;;;;;;5033048;28;8955;-84
2023/07/27 01:54:55;;;;;;;;;3.40;3.40;;;;;;;;5032852;28;8937;-84
2023/07/27 01:57:25;;;;;;;;;3.00;3.00;;;;;;;;5032624;28;8858;-84
2023/07/27 01:59:52;;;;;;;;;3.40;3.40;;;;;;;;5033560;28;8866;-84
2023/07/27 02:02:20;;;;;;;;;4.75;4.25;;;;;;;;5032760;28;8813;-85
2023/07/27 02:04:47;;;;;;;;;2.80;2.80;;;;;;;;5035461;28;8865;-84
2023/07/27 02:07:19;;;;;;;;;2.75;2.75;;;;;;;;5036463;28;8870;-85
2023/07/27 02:09:47;;;;;;;;;5.80;2.40;;;;;;;;5037657;28;8892;-84
2023/07/27 02:12:22;;;;;;;;;2.80;2.80;;;;;;;;5034003;28;8862;-84
2023/07/27 02:14:59;;;;;;;;;2.80;2.80;;;;;;;;5042506;28;8859;-84
2023/07/27 02:17:30;;;;;;;;;5.60;4.80;;;;;;;;5052883;28;8847;-84
2023/07/27 02:19:58;;;;;;;;;2.20;2.20;;;;;;;;5052409;28;8977;-84
2023/07/27 02:22:29;;;;;;;;;3.60;2.00;;;;;;;;5052298;28;8993;-83
2023/07/27 02:24:56;;;;;;;;;5.60;4.00;;;;;;;;5052320;28;8889;-84
2023/07/27 02:27:24;;;;;;;;;3.80;3.80;;;;;;;;5052166;28;9005;-84
2023/07/27 02:29:51;;;;;;;;;5.00;3.40;;;;;;;;5052215;28;8862;-84
2023/07/27 02:32:19;;;;;;;;;4.40;2.60;;;;;;;;5057784;28;8946;-84
2023/07/27 02:34:46;;;;;;;;;4.00;4.00;;;;;;;;5052641;28;9723;-83
2023/07/27 02:37:13;;;;;;;;;2.80;2.80;;;;;;;;5052201;28;8863;-84
2023/07/27 02:39:42;;;;;;;;;1.40;1.40;;;;;;;;5053709;28;8835;-81
2023/07/27 02:42:10;;;;;;;;;2.80;2.80;;;;;;;;5055436;28;8855;-83
2023/07/27 02:44:37;;;;;;;;;4.20;3.00;;;;;;;;5053055;28;8866;-83
2023/07/27 02:47:05;;;;;;;;;2.00;2.00;;;;;;;;5054275;28;8851;-83
2023/07/27 02:49:32;;;;;;;;;2.60;2.60;;;;;;;;5055412;28;8905;-84
2023/07/27 02:52:02;;;;;;;;;1.20;1.20;;;;;;;;5054909;28;8944;-83
2023/07/27 02:54:29;;;;;;;;;2.40;2.40;;;;;;;;5054785;28;8875;-84
2023/07/27 02:56:58;;;;;;;;;3.00;3.00;;;;;;;;5055595;28;8908;-83
2023/07/27 02:59:25;;;;;;;;;3.00;2.00;;;;;;;;5055627;28;8866;-83
2023/07/27 03:01:53;;;;;;;;;3.80;3.80;;;;;;;;5053814;28;8854;-82
2023/07/27 03:04:20;;;;;;;;;2.80;2.80;;;;;;;;5052699;28;8940;-81
2023/07/27 03:06:47;;;;;;;;;1.80;1.80;;;;;;;;5052442;28;8874;-82
2023/07/27 03:09:14;;;;;;;;;2.20;2.20;;;;;;;;5052204;28;8854;-83
2023/07/27 03:11:45;;;;;;;;;5.00;5.00;;;;;;;;5051762;28;8863;-83
2023/07/27 03:14:16;;;;;;;;;1.80;1.80;;;;;;;;5051811;28;8847;-82
2023/07/27 03:16:44;;;;;;;;;3.00;3.00;;;;;;;;5052931;28;8985;-81
2023/07/27 03:19:11;;;;;;;;;2.75;2.75;;;;;;;;5051780;28;8933;-82
2023/07/27 03:21:38;;;;;;;;;4.25;4.25;;;;;;;;5051022;28;8978;-82
2023/07/27 03:24:06;;;;;;;;;3.00;3.00;;;;;;;;5051231;28;8867;-83
2023/07/27 03:26:33;;;;;;;;;2.20;2.20;;;;;;;;5050559;28;8873;-83
2023/07/27 03:29:01;;;;;;;;;4.80;3.00;;;;;;;;5050330;28;8843;-82
2023/07/27 03:31:29;;;;;;;;;2.80;2.80;;;;;;;;5050716;28;8799;-83
2023/07/27 03:33:57;;;;;;;;;2.00;2.00;;;;;;;;5050852;28;8873;-83
2023/07/27 03:36:24;;;;;;;;;1.80;1.80;;;;;;;;5050616;28;8835;-83
2023/07/27 03:38:52;;;;;;;;;2.80;2.80;;;;;;;;5050714;28;8859;-84
2023/07/27 03:41:19;;;;;;;;;1.20;1.20;;;;;;;;5051626;28;8843;-83
2023/07/27 03:43:46;;;;;;;;;1.80;1.80;;;;;;;;5049497;28;8932;-83
2023/07/27 03:46:14;;;;;;;;;2.60;2.60;;;;;;;;5051175;28;8944;-83
2023/07/27 03:48:47;;;;;;;;;3.00;1.60;;;;;;;;5035108;28;9675;-83
2023/07/27 03:51:15;;;;;;;;;2.00;2.00;;;;;;;;5031867;28;8866;-82
2023/07/27 03:53:48;;;;;;;;;3.60;3.60;;;;;;;;5031819;28;8978;-82
2023/07/27 03:56:16;;;;;;;;;1.80;1.80;;;;;;;;5033555;28;8876;-82
2023/07/27 03:58:43;;;;;;;;;1.20;1.20;;;;;;;;5031456;28;9639;-81
2023/07/27 04:01:10;;;;;;;;;2.00;2.00;;;;;;;;5030719;28;8770;-81
2023/07/27 04:03:38;;;;;;;;;0.00;0.00;;;;;;;;5030858;28;8930;-82
2023/07/27 04:06:07;;;;;;;;;2.20;2.20;;;;;;;;5029801;28;8850;-82
2023/07/27 04:08:34;;;;;;;;;3.80;2.20;;;;;;;;5030635;28;8931;-83
2023/07/27 04:11:01;;;;;;;;;2.00;2.00;;;;;;;;5030273;28;8865;-83
2023/07/27 04:13:29;;;;;;;;;2.80;2.80;;;;;;;;5030309;28;8884;-83
2023/07/27 04:15:59;;;;;;;;;1.20;0.80;;;;;;;;5049375;28;8875;-83
2023/07/27 04:18:26;;;;;;;;;1.80;1.80;;;;;;;;5049766;28;8873;-83
2023/07/27 04:20:55;;;;;;;;;0.20;0.20;;;;;;;;5049952;28;8993;-82
2023/07/27 04:23:25;;;;;;;;;2.00;2.00;;;;;;;;5049906;28;8859;-82
2023/07/27 04:25:52;;;;;;;;;0.40;0.40;;;;;;;;5050828;28;8881;-81
2023/07/27 04:28:19;;;;;;;;;1.80;1.80;;;;;;;;5052686;28;8838;-81
2023/07/27 04:30:47;;;;;;;;;0.00;0.00;;;;;;;;5051919;28;8818;-80
2023/07/27 04:33:14;;;;;;;;;2.00;2.00;;;;;;;;5052151;28;8890;-82
2023/07/27 04:35:43;;;;;;;;;1.40;1.40;;;;;;;;5052092;28;8858;-82
2023/07/27 04:38:11;;;;;;;;;1.20;1.20;;;;;;;;5050723;28;8919;-82
2023/07/27 04:40:39;;;;;;;;;2.00;1.80;;;;;;;;5052829;28;8981;-82
2023/07/27 04:43:07;;;;;;;;;2.20;2.20;;;;;;;;5053199;28;8878;-82
2023/07/27 04:45:34;;;;;;;;;2.00;2.00;;;;;;;;5054276;28;9005;-83
2023/07/27 04:48:03;;;;;;;;;2.00;2.00;;;;;;;;5054112;28;8843;-83
2023/07/27 04:50:30;;;;;;;;;3.80;2.40;;;;;;;;5055568;28;8875;-83
2023/07/27 04:52:58;;;;;;;;;0.40;0.40;;;;;;;;5053825;28;8908;-83
2023/07/27 04:55:25;;;;;;;;;2.00;2.00;;;;;;;;5053967;28;8835;-83
2023/07/27 04:57:54;;;;;;;;;1.80;1.80;;;;;;;;5054046;28;9606;-82
2023/07/27 05:00:21;;;;;;;;;1.00;1.00;;;;;;;;5053379;28;8862;-82
2023/07/27 05:02:49;;;;;;;;;0.40;0.00;;;;;;;;5055635;28;8993;-82
2023/07/27 05:05:16;;;;;;;;;0.80;0.80;;;;;;;;5055069;28;8843;-82
2023/07/27 05:07:43;;;;;;;;;1.60;1.60;;;;;;;;5053510;28;8867;-83
2023/07/27 05:10:11;;;;;;;;;1.00;1.00;;;;;;;;5053422;28;8998;-83
2023/07/27 05:12:42;;;;;;;;;0.80;0.80;;;;;;;;5053017;28;8863;-83
2023/07/27 05:15:11;;;;;;;;;1.80;1.80;;;;;;;;5053483;28;8850;-83
2023/07/27 05:17:39;;;;;;;;;1.20;1.20;;;;;;;;5053277;28;8875;-83
2023/07/27 05:20:09;;;;;;;;;2.00;2.00;;;;;;;;5053059;28;8847;-83
2023/07/27 05:22:37;;;;;;;;;0.80;0.80;;;;;;;;5053252;28;8855;-83
2023/07/27 05:25:05;;;;;;;;;1.00;1.00;;;;;;;;5052602;28;8870;-82
2023/07/27 05:27:32;;;;;;;;;1.40;1.40;;;;;;;;5052880;28;9560;-83
2023/07/27 05:29:59;;;;;;;;;1.00;1.00;;;;;;;;5052224;28;8969;-83
2023/07/27 05:32:32;;;;;;;;;1.00;1.00;;;;;;;;5052101;28;8791;-84
2023/07/27 05:35:01;;;;;;;;;1.40;1.40;;;;;;;;5054009;28;8865;-82
2023/07/27 05:37:29;;;;;;;;;2.20;0.80;;;;;;;;5055328;28;8936;-81
2023/07/27 05:39:56;;;;;;;;;1.00;1.00;;;;;;;;5054745;28;8897;-82
2023/07/27 05:42:26;;;;;;;;;1.40;1.40;;;;;;;;5053042;28;8846;-82
2023/07/27 05:44:53;;;;;;;;;1.60;1.60;;;;;;;;5052914;28;8942;-82
2023/07/27 05:47:21;;;;;;;;;1.60;1.00;;;;;;;;5052141;28;8867;-82
2023/07/27 05:49:49;;;;;;;;;0.80;0.80;;;;;;;;5052246;28;9029;-81
2023/07/27 05:52:17;;;;;;;;;1.00;1.00;;;;;;;;5051590;28;9648;-81
2023/07/27 05:54:44;;;;;;;;;2.00;2.00;;;;;;;;5052681;28;8966;-82
2023/07/27 05:57:12;;;;;;;;;2.75;0.75;;;;;;;;5052067;28;9600;-82
2023/07/27 05:59:39;;;;;;;;;0.80;0.80;;;;;;;;5054516;28;8891;-82
2023/07/27 06:02:07;;;;;;;;;1.00;1.00;;;;;;;;5052016;28;9562;-82
2023/07/27 06:04:35;;;;;;;;;1.00;1.00;;;;;;;;5051470;28;8993;-82
2023/07/27 06:07:05;;;;;;;;;0.00;0.00;;;;;;;;5052470;28;8839;-82
2023/07/27 06:09:32;;;;;;;;;1.00;1.00;;;;;;;;5053227;28;8844;-82
2023/07/27 06:11:59;;;;;;;;;1.00;1.00;;;;;;;;5055170;28;8968;-82
2023/07/27 06:14:27;;;;;;;;;0.00;0.00;;;;;;;;5056314;28;8839;-82
2023/07/27 06:16:54;;;;;;;;;0.20;0.20;;;;;;;;5055865;28;8867;-77
2023/07/27 06:19:21;;;;;;;;;2.00;0.25;;;;;;;;5053390;28;8983;-79
2023/07/27 06:21:48;;;;;;;;;0.00;0.00;;;;;;;;5052277;28;8878;-77
2023/07/27 06:24:17;;;;;;;;;1.00;1.00;;;;;;;;5051945;28;8978;-80
2023/07/27 06:26:44;;;;;;;;;0.00;0.00;;;;;;;;5051389;28;8887;-80
2023/07/27 06:29:14;;;;;;;;;1.00;1.00;;;;;;;;5050740;28;8839;-79
2023/07/27 06:31:41;;;;;;;;;1.00;1.00;;;;;;;;5050909;28;9628;-79
2023/07/27 06:34:09;;;;;;;;;1.00;1.00;;;;;;;;5050891;28;8875;-78
2023/07/27 06:36:36;;;;;;;;;2.80;0.00;;;;;;;;5051275;28;8974;-79
2023/07/27 06:39:04;;;;;;;;;0.00;0.00;;;;;;;;5051413;28;8893;-76
2023/07/27 06:41:33;;;;;;;;;1.20;1.20;;;;;;;;5051158;28;9511;-77
2023/07/27 06:44:00;;;;;;;;;0.80;0.80;;;;;;;;5050537;28;8993;-77
2023/07/27 06:46:27;;;;;;;;;1.40;1.40;;;;;;;;5050925;28;8897;-77
2023/07/27 06:48:55;;;;;;;;;1.20;0.80;;;;;;;;5051053;28;8881;-77
2023/07/27 06:51:23;;;;;;;;;2.40;1.00;;;;;;;;5051401;28;8847;-77
2023/07/27 06:53:50;;;;;;;;;3.20;1.60;;;;;;;;5050648;28;8871;-76
2023/07/27 06:56:18;;;;;;;;;0.60;0.60;;;;;;;;5051044;28;8859;-77
2023/07/27 06:58:46;;;;;;;;;0.00;0.00;;;;;;;;5050930;28;8858;-77
2023/07/27 07:01:14;;;;;;;;;1.60;1.60;;;;;;;;5049852;28;8775;-76
2023/07/27 07:03:44;;;;;;;;;0.00;0.00;;;;;;;;5049899;28;8870;-77
2023/07/27 07:06:11;;;;;;;;;2.00;1.00;;;;;;;;5050716;28;8968;-76
2023/07/27 07:08:39;;;;;;;;;1.00;1.00;;;;;;;;5051130;28;8863;-78
2023/07/27 07:11:06;;;;;;;;;0.60;0.60;;;;;;;;5052027;28;8874;-76
2023/07/27 07:13:33;;;;;;;;;3.00;1.00;;;;;;;;5051909;28;9628;-76
2023/07/27 07:16:02;;;;;;;;;2.00;1.00;;;;;;;;5050663;28;8893;-76
2023/07/27 07:18:29;;;;;;;;;0.80;0.80;;;;;;;;5050696;28;8851;-75
2023/07/27 07:20:56;;;;;;;;;1.00;1.00;;;;;;;;5050291;28;8977;-76
2023/07/27 07:23:23;;;;;;;;;3.00;1.60;;;;;;;;5050194;28;8903;-76
2023/07/27 07:25:51;;;;;;;;;2.00;1.00;;;;;;;;5050472;28;8871;-76
2023/07/27 07:28:18;;;;;;;;;1.20;0.80;;;;;;;;5049907;28;8851;-76
2023/07/27 07:30:46;;;;;;;;;0.00;0.00;;;;;;;;5049637;28;8886;-76
2023/07/27 07:33:14;;;;;;;;;1.00;1.00;;;;;;;;5050027;28;8909;-76
2023/07/27 07:35:42;;;;;;;;;0.80;0.80;;;;;;;;5050746;28;8981;-76
2023/07/27 07:38:09;;;;;;;;;1.00;1.00;;;;;;;;5050699;28;8855;-77
2023/07/27 07:40:36;;;;;;;;;0.60;0.60;;;;;;;;5050405;28;8855;-77
2023/07/27 07:43:04;;;;;;;;;1.00;1.00;;;;;;;;5050834;28;8932;-76
2023/07/27 07:45:34;;;;;;;;;1.40;1.40;;;;;;;;5051336;28;8870;-77
2023/07/27 07:48:01;;;;;;;;;0.20;0.20;;;;;;;;5052272;28;8873;-76
2023/07/27 07:50:30;;;;;;;;;1.60;1.60;;;;;;;;5053526;28;8869;-78
2023/07/27 07:52:57;;;;;;;;;1.00;1.00;;;;;;;;5053289;28;8861;-78
2023/07/27 07:55:24;;;;;;;;;1.20;1.20;;;;;;;;5052812;28;8854;-77
2023/07/27 07:57:54;;;;;;;;;1.00;1.00;;;;;;;;5052732;28;8862;-76
2023/07/27 08:00:21;;;;;;;;;1.80;1.80;;;;;;;;5051514;28;8897;-76
2023/07/27 08:02:49;;;;;;;;;0.40;0.40;;;;;;;;5051266;28;8866;-78
2023/07/27 08:05:16;;;;;;;;;1.80;1.80;;;;;;;;5050560;28;8858;-76
2023/07/27 08:07:45;;;;;;;;;1.80;1.80;;;;;;;;5050064;28;8874;-75
2023/07/27 08:10:13;;;;;;;;;1.20;1.20;;;;;;;;5050775;28;8885;-76
2023/07/27 08:12:40;;;;;;;;;3.60;2.60;;;;;;;;5050695;28;8855;-76
2023/07/27 08:15:08;;;;;;;;;0.20;0.20;;;;;;;;5051148;28;8855;-77
2023/07/27 08:17:35;;;;;;;;;2.00;2.00;;;;;;;;5050641;28;8855;-77
2023/07/27 08:20:03;;;;;;;;;1.00;1.00;;;;;;;;5049819;28;8866;-77
2023/07/27 08:22:30;;;;;;;;;1.00;1.00;;;;;;;;5049909;28;8897;-76
2023/07/27 08:24:59;;;;;;;;;2.00;2.00;;;;;;;;5049490;28;8854;-77
2023/07/27 08:27:26;;;;;;;;;1.20;1.20;;;;;;;;5049258;28;8942;-77
2023/07/27 08:29:54;;;;;;;;;1.00;0.80;;;;;;;;5050187;28;8847;-77
2023/07/27 08:32:21;;;;;;;;;3.40;3.20;;;;;;;;5049640;28;8779;-77
2023/07/27 08:34:48;;;;;;;;;3.80;2.40;;;;;;;;5049345;28;8993;-77
2023/07/27 08:37:15;;;;;;;;;2.00;2.00;;;;;;;;5049784;28;8872;-78
2023/07/27 08:39:43;;;;;;;;;3.00;3.00;;;;;;;;5049308;28;8851;-77
2023/07/27 08:42:15;;;;;;;;;2.80;2.80;;;;;;;;5049621;28;9587;-77
2023/07/27 08:44:44;;;;;;;;;2.20;2.20;;;;;;;;5049586;28;8951;-76
2023/07/27 08:47:14;;;;;;;;;1.80;1.00;;;;;;;;5049756;28;9609;-77
2023/07/27 08:49:42;;;;;;;;;3.60;2.00;;;;;;;;5049909;28;8845;-77
2023/07/27 08:52:14;;;;;;;;;1.80;1.80;;;;;;;;5050267;28;8876;-77
2023/07/27 08:54:41;;;;;;;;;2.20;2.20;;;;;;;;5050204;28;8973;-77
2023/07/27 08:57:12;;;;;;;;;2.80;2.80;;;;;;;;5049722;28;8859;-76
2023/07/27 08:59:39;;;;;;;;;2.80;1.80;;;;;;;;5049781;28;8851;-77
2023/07/27 09:02:06;;;;;;;;;3.60;3.60;;;;;;;;5049010;28;9570;-77
2023/07/27 09:04:34;;;;;;;;;3.20;3.20;;;;;;;;5049212;28;8859;-77
2023/07/27 09:07:07;;;;;;;;;2.00;2.00;;;;;;;;5048908;28;8855;-76
2023/07/27 09:09:35;;;;;;;;;3.00;1.00;;;;;;;;5049147;28;8843;-77
2023/07/27 09:12:05;;;;;;;;;1.20;1.20;;;;;;;;5049014;28;8878;-76
2023/07/27 09:14:37;;;;;;;;;2.80;2.80;;;;;;;;5049020;28;8968;-77
2023/07/27 09:17:05;;;;;;;;;1.00;1.00;;;;;;;;5049035;28;8932;-76
2023/07/27 09:19:37;;;;;;;;;1.20;0.80;;;;;;;;5049582;28;8835;-77
2023/07/27 09:22:05;;;;;;;;;2.20;2.20;;;;;;;;5049344;28;9597;-77
2023/07/27 09:24:34;;;;;;;;;4.60;2.80;;;;;;;;5049550;28;8992;-76
2023/07/27 09:27:02;;;;;;;;;3.00;3.00;;;;;;;;5052312;28;8889;-77
2023/07/27 09:29:30;;;;;;;;;1.80;1.80;;;;;;;;5054341;28;8873;-77
2023/07/27 09:31:59;;;;;;;;;2.60;2.60;;;;;;;;5053362;28;8791;-77
2023/07/27 09:34:28;;;;;;;;;3.20;3.20;;;;;;;;5053079;28;9002;-77
2023/07/27 09:36:56;;;;;;;;;0.20;0.20;;;;;;;;5052713;28;8867;-77
2023/07/27 09:39:27;;;;;;;;;2.20;2.20;;;;;;;;5052899;28;8882;-77
2023/07/27 09:41:55;;;;;;;;;3.00;1.60;;;;;;;;5052755;28;8855;-76
2023/07/27 09:44:22;;;;;;;;;1.80;1.80;;;;;;;;5053368;28;8867;-77
2023/07/27 09:46:49;;;;;;;;;0.80;0.00;;;;;;;;5053006;28;8850;-77
2023/07/27 09:49:19;;;;;;;;;2.60;2.00;;;;;;;;5053477;28;8912;-77
2023/07/27 09:51:47;;;;;;;;;2.40;2.00;;;;;;;;5052737;28;8952;-76
2023/07/27 09:54:15;;;;;;;;;1.40;1.40;;;;;;;;5052275;28;8993;-76
2023/07/27 09:56:45;;;;;;;;;1.00;1.00;;;;;;;;5052871;28;8843;-78
2023/07/27 09:59:12;;;;;;;;;1.60;1.60;;;;;;;;5052660;28;8847;-77
2023/07/27 10:01:40;;;;;;;;;2.80;1.80;;;;;;;;5052077;28;8798;-76
2023/07/27 10:04:07;;;;;;;;;0.00;0.00;;;;;;;;5053239;28;8993;-76
2023/07/27 10:06:36;;;;;;;;;2.00;2.00;;;;;;;;5053854;28;8870;-76
2023/07/27 10:09:18;;;;;;;;;0.40;0.40;;;;;;;;5054081;28;8863;-77
2023/07/27 10:11:56;;;;;;;;;0.80;0.80;;;;;;;;5054011;28;8858;-76
2023/07/27 10:14:26;;;;;;;;;0.00;0.00;;;;;;;;5052759;28;8859;-76
2023/07/27 10:17:03;;;;;;;;;0.00;0.00;;;;;;;;5052284;28;8905;-76
2023/07/27 10:19:43;;;;;;;;;0.00;0.00;;;;;;;;5052607;28;8859;-75
2023/07/27 10:22:15;;;;;;;;;0.80;0.80;;;;;;;;5052635;28;8859;-76
2023/07/27 10:24:48;;;;;;;;;0.00;0.00;;;;;;;;5052076;28;8847;-76
2023/07/27 10:27:16;;;;;;;;;0.00;0.00;;;;;;;;5051989;28;8944;-76
2023/07/27 10:29:47;;;;;;;;;0.40;0.40;;;;;;;;5051957;28;8847;-75
2023/07/27 10:32:15;;;;;;;;;0.80;0.80;;;;;;;;5051439;28;8795;-76
2023/07/27 10:34:43;;;;;;;;;1.20;0.00;;;;;;;;5051905;28;8862;-76
2023/07/27 10:37:11;;;;;;;;;0.00;0.00;;;;;;;;5051671;28;8877;-76
2023/07/27 10:39:46;;;;;;;;;0.80;0.80;;;;;;;;5051366;28;8863;-76
2023/07/27 10:42:16;;;;;;;;;0.80;0.80;;;;;;;;5051172;28;9507;-76
2023/07/27 10:44:46;;;;;;;;;0.20;0.00;;;;;;;;5052574;28;8855;-76
2023/07/27 10:47:15;;;;;;;;;0.00;0.00;;;;;;;;5052541;28;8846;-77
2023/07/27 10:49:45;;;;;;;;;0.40;0.40;;;;;;;;5051881;28;8909;-76
2023/07/27 10:52:16;;;;;;;;;0.00;0.00;;;;;;;;5051624;28;8867;-78
2023/07/27 10:54:46;;;;;;;;;1.00;1.00;;;;;;;;5051433;28;9332;-79
2023/07/27 10:57:15;;;;;;;;;0.40;0.40;;;;;;;;5051864;28;9689;-79
2023/07/27 10:59:44;;;;;;;;;1.00;1.00;;;;;;;;5051603;28;8850;-79
2023/07/27 11:02:15;;;;;;;;;2.00;0.80;;;;;;;;5050643;28;8914;-79
2023/07/27 11:04:43;;;;;;;;;2.40;0.80;;;;;;;;5052424;28;8859;-79
2023/07/27 11:07:11;;;;;;;;;0.00;0.00;;;;;;;;5052833;28;8835;-75
2023/07/27 11:09:38;;;;;;;;;0.80;0.80;;;;;;;;5051465;28;8863;-75
2023/07/27 11:12:07;;;;;;;;;1.00;1.00;;;;;;;;5051106;28;8877;-75
2023/07/27 11:14:34;;;;;;;;;0.00;0.00;;;;;;;;5050748;28;8871;-77
2023/07/27 11:17:03;;;;;;;;;2.00;0.80;;;;;;;;5050501;28;8855;-76
2023/07/27 11:19:30;;;;;;;;;0.40;0.40;;;;;;;;5050891;28;8982;-76
2023/07/27 11:21:57;;;;;;;;;0.00;0.00;;;;;;;;5050663;28;8863;-79
2023/07/27 11:24:25;;;;;;;;;0.00;0.00;;;;;;;;5050919;28;9001;-79
2023/07/27 11:26:52;;;;;;;;;0.80;0.80;;;;;;;;5050931;28;8848;-78
2023/07/27 11:29:22;;;;;;;;;0.60;0.60;;;;;;;;5051019;28;8835;-78
2023/07/27 11:31:56;;;;;;;;;2.20;0.80;;;;;;;;5050494;28;8791;-77
2023/07/27 11:34:24;;;;;;;;;0.20;0.20;;;;;;;;5050827;28;8873;-77
2023/07/27 11:36:55;;;;;;;;;1.00;1.00;;;;;;;;5051368;28;8827;-78
2023/07/27 11:39:22;;;;;;;;;0.00;0.00;;;;;;;;5050829;28;8867;-78
2023/07/27 11:41:51;;;;;;;;;0.20;0.20;;;;;;;;5050974;28;9586;-78
2023/07/27 11:44:21;;;;;;;;;0.20;0.20;;;;;;;;5050129;28;8897;-77
2023/07/27 11:46:51;;;;;;;;;0.40;0.00;;;;;;;;5050004;28;8843;-78
2023/07/27 11:49:19;;;;;;;;;1.20;0.60;;;;;;;;5050099;28;8857;-78
2023/07/27 11:51:47;;;;;;;;;0.80;0.80;;;;;;;;5050512;28;8885;-78
2023/07/27 11:54:25;;;;;;;;;0.80;0.80;;;;;;;;5049731;28;9694;-78
2023/07/27 11:56:53;;;;;;;;;0.40;0.40;;;;;;;;5050204;28;8869;-78
2023/07/27 11:59:22;;;;;;;;;1.20;0.80;;;;;;;;5050580;28;8924;-78
2023/07/27 12:01:50;;;;;;;;;1.20;0.20;;;;;;;;5050196;28;8880;-78
2023/07/27 12:04:18;;;;;;;;;0.20;0.20;;;;;;;;5050520;28;9641;-79
2023/07/27 12:06:45;;;;;;;;;0.80;0.80;;;;;;;;5051690;28;8881;-78
2023/07/27 12:09:13;;;;;;;;;0.80;0.80;;;;;;;;5050351;28;8847;-78
2023/07/27 12:11:42;;;;;;;;;1.00;0.20;;;;;;;;5050628;28;8959;-78
2023/07/27 12:14:10;;;;;;;;;0.00;0.00;;;;;;;;5049961;28;8859;-79
2023/07/27 12:16:39;;;;;;;;;0.00;0.00;;;;;;;;5049842;28;8851;-75
2023/07/27 12:19:07;;;;;;;;;0.20;0.20;;;;;;;;5049448;28;8851;-75
2023/07/27 12:21:35;;;;;;;;;0.20;0.20;;;;;;;;5049626;28;8962;-76
2023/07/27 12:24:03;;;;;;;;;0.00;0.00;;;;;;;;5049295;28;9737;-76
2023/07/27 12:26:31;;;;;;;;;0.20;0.20;;;;;;;;5049933;28;8866;-75
2023/07/27 12:28:58;;;;;;;;;0.20;0.20;;;;;;;;5049131;28;9621;-75
2023/07/27 12:31:25;;;;;;;;;0.00;0.00;;;;;;;;5049420;28;8941;-77
2023/07/27 12:33:54;;;;;;;;;0.00;0.00;;;;;;;;5050343;28;8949;-76
2023/07/27 12:36:21;;;;;;;;;0.00;0.00;;;;;;;;5050839;28;8863;-76
2023/07/27 12:38:49;;;;;;;;;0.60;0.60;;;;;;;;5052006;28;9657;-76
2023/07/27 12:41:16;;;;;;;;;0.00;0.00;;;;;;;;5052303;28;8925;-77
2023/07/27 12:43:43;;;;;;;;;1.00;1.00;;;;;;;;5052898;28;8851;-76
2023/07/27 12:46:12;;;;;;;;;0.80;0.80;;;;;;;;5052387;28;8844;-76
2023/07/27 12:48:39;;;;;;;;;1.80;1.80;;;;;;;;5051777;28;8843;-75
2023/07/27 12:51:08;;;;;;;;;0.40;0.40;;;;;;;;5049108;28;8867;-76
2023/07/27 12:53:35;;;;;;;;;1.00;1.00;;;;;;;;5049531;28;8839;-75
2023/07/27 12:56:03;;;;;;;;;0.20;0.20;;;;;;;;5049056;28;8977;-75
2023/07/27 12:58:30;;;;;;;;;1.80;1.80;;;;;;;;5049195;28;8863;-75
2023/07/27 13:00:57;;;;;;;;;1.40;1.00;;;;;;;;5049508;28;8790;-75
2023/07/27 13:03:24;;;;;;;;;1.00;1.00;;;;;;;;5053055;28;8977;-80
2023/07/27 13:05:51;;;;;;;;;1.20;1.20;;;;;;;;5053634;28;8859;-81
2023/07/27 13:08:20;;;;;;;;;2.00;2.00;;;;;;;;5053165;28;9582;-79
2023/07/27 13:10:47;;;;;;;;;0.80;0.80;;;;;;;;5053229;28;8974;-78
2023/07/27 13:13:15;;;;;;;;;4.60;1.60;;;;;;;;5052767;28;9014;-81
2023/07/27 13:15:42;;;;;;;;;1.80;1.80;;;;;;;;5052391;28;8851;-76
2023/07/27 13:18:09;;;;;;;;;0.20;0.20;;;;;;;;5052549;28;8858;-76
2023/07/27 13:20:38;;;;;;;;;1.60;1.60;;;;;;;;5052746;28;8881;-75
2023/07/27 13:23:05;;;;;;;;;2.00;2.00;;;;;;;;5052101;28;8979;-73
2023/07/27 13:25:34;;;;;;;;;1.80;1.80;;;;;;;;5052821;28;8873;-74
2023/07/27 13:28:01;;;;;;;;;2.00;2.00;;;;;;;;5051920;28;8870;-73
2023/07/27 13:30:28;;;;;;;;;2.00;2.00;;;;;;;;5051695;28;8711;-72
2023/07/27 13:32:55;;;;;;;;;2.80;2.00;;;;;;;;5052072;28;8969;-73
2023/07/27 13:35:23;;;;;;;;;3.00;3.00;;;;;;;;5052279;28;8881;-73
2023/07/27 13:37:52;;;;;;;;;2.00;2.00;;;;;;;;5052338;28;8851;-73
2023/07/27 13:40:19;;;;;;;;;1.20;1.20;;;;;;;;5052552;28;8843;-73
2023/07/27 13:42:48;;;;;;;;;2.60;1.80;;;;;;;;5052412;28;8854;-75
2023/07/27 13:45:15;;;;;;;;;2.60;2.60;;;;;;;;5052176;28;8866;-77
2023/07/27 13:47:43;;;;;;;;;4.00;4.00;;;;;;;;5051961;28;8993;-77
2023/07/27 13:50:10;;;;;;;;;4.80;4.60;;;;;;;;5052177;28;8847;-75
2023/07/27 13:52:38;;;;;;;;;5.80;5.80;;;;;;;;5051969;28;8898;-76
2023/07/27 13:55:06;;;;;;;;;4.80;3.20;;;;;;;;5051646;28;8986;-75
2023/07/27 13:57:33;;;;;;;;;4.40;3.80;;;;;;;;5051530;28;9621;-73
2023/07/27 14:00:01;;;;;;;;;6.80;5.00;;;;;;;;5051317;28;8847;-75
2023/07/27 14:02:29;;;;;;;;;3.80;3.80;;;;;;;;5051683;28;8795;-75
2023/07/27 14:04:56;;;;;;;;;4.80;4.80;;;;;;;;5051832;28;8866;-75
2023/07/27 14:07:24;;;;;;;;;6.20;5.60;;;;;;;;5052271;28;8869;-75
2023/07/27 14:09:52;;;;;;;;;5.00;5.00;;;;;;;;5052692;28;8855;-75
2023/07/27 14:12:22;;;;;;;;;4.80;4.80;;;;;;;;5052863;28;8870;-74
2023/07/27 14:14:49;;;;;;;;;7.80;6.00;;;;;;;;5053940;28;8859;-76
2023/07/27 14:17:18;;;;;;;;;5.20;5.20;;;;;;;;5055308;28;9761;-76
2023/07/27 14:19:45;;;;;;;;;5.40;5.40;;;;;;;;5055206;28;9757;-77
2023/07/27 14:22:13;;;;;;;;;5.60;5.60;;;;;;;;5054662;28;8839;-74
2023/07/27 14:24:40;;;;;;;;;4.80;4.80;;;;;;;;5054146;28;8862;-73
2023/07/27 14:27:07;;;;;;;;;3.80;3.80;;;;;;;;5053387;28;9629;-78
2023/07/27 14:29:35;;;;;;;;;6.40;5.40;;;;;;;;5051573;28;8981;-75
2023/07/27 14:32:02;;;;;;;;;6.20;5.80;;;;;;;;5050685;28;8930;-77
2023/07/27 14:34:30;;;;;;;;;3.80;3.80;;;;;;;;5051430;28;8855;-76
2023/07/27 14:36:58;;;;;;;;;3.00;3.00;;;;;;;;5051091;28;8847;-74
2023/07/27 14:39:25;;;;;;;;;5.00;5.00;;;;;;;;5051345;28;8871;-74
2023/07/27 14:41:52;;;;;;;;;6.00;5.60;;;;;;;;5051167;28;8857;-72
2023/07/27 14:44:20;;;;;;;;;6.20;6.00;;;;;;;;5051255;28;8854;-72
2023/07/27 14:46:59;;;;;;;;;5.40;3.40;;;;;;;;5050860;28;8893;-74
2023/07/27 14:49:27;;;;;;;;;5.20;5.00;;;;;;;;5050552;28;8835;-73
2023/07/27 14:51:55;;;;;;;;;7.00;5.00;;;;;;;;5050644;28;8873;-74
2023/07/27 14:54:22;;;;;;;;;6.00;6.00;;;;;;;;5050978;28;8953;-74
2023/07/27 14:56:50;;;;;;;;;4.20;4.20;;;;;;;;5050886;28;8851;-73
2023/07/27 14:59:17;;;;;;;;;4.00;4.00;;;;;;;;5050610;28;8884;-75
2023/07/27 15:01:44;;;;;;;;;4.00;4.00;;;;;;;;5050265;28;8799;-74
2023/07/27 15:04:13;;;;;;;;;4.80;4.80;;;;;;;;5050231;28;8990;-75
2023/07/27 15:06:40;;;;;;;;;4.80;4.80;;;;;;;;5050888;28;8867;-74